Time;durP1;ratioP1;P1;durP2;ratioP2;P2;SDS_P1;SDS_P2;PMS_P1;PMS_P2;Temp;Humidity;BMP_temperature;BMP_pressure;BME280_temperature;BME280_humidity;BME280_pressure;Samples;Min_cycle;Max_cycle;Signal;HPM_P1;HPM_P2
2023/10/06 00:01:19;;;;;;;12.15;6.57;;;;;;;13.28;92.38;102384.47;5072094;28;20445;-58
2023/10/06 00:03:44;;;;;;;8.40;6.75;;;;;;;13.23;92.62;102391.81;5053803;28;20040;-58
2023/10/06 00:06:16;;;;;;;12.82;7.20;;;;;;;13.16;92.93;102377.91;5072344;28;20020;-58
2023/10/06 00:08:41;;;;;;;11.15;6.72;;;;;;;13.20;93.09;102389.28;5071666;28;20024;-58
2023/10/06 00:11:15;;;;;;;11.07;6.45;;;;;;;13.15;92.93;102397.56;5071805;28;20028;-58
2023/10/06 00:13:51;;;;;;;9.23;6.88;;;;;;;13.15;93.03;102388.69;5072029;28;20025;-58
2023/10/06 00:16:19;;;;;;;12.35;6.50;;;;;;;13.18;93.27;102388.53;5071628;28;20141;-58
2023/10/06 00:18:47;;;;;;;5.20;3.70;;;;;;;13.25;92.52;102386.41;5071616;28;20115;-58
2023/10/06 00:21:15;;;;;;;11.73;6.90;;;;;;;13.07;93.40;102382.84;5072182;28;20035;-58
2023/10/06 00:23:44;;;;;;;12.50;6.38;;;;;;;13.03;93.49;102386.59;5071295;28;20023;-58
2023/10/06 00:26:12;;;;;;;13.90;6.65;;;;;;;12.98;93.77;102399.31;5070862;28;20082;-58
2023/10/06 00:28:39;;;;;;;10.63;6.60;;;;;;;13.01;93.89;102389.34;5071757;28;20112;-58
2023/10/06 00:31:08;;;;;;;16.10;7.50;;;;;;;12.98;94.16;102389.50;5071766;28;20021;-58
2023/10/06 00:33:37;;;;;;;9.70;6.68;;;;;;;12.91;94.51;102386.25;5069907;28;20090;-58
2023/10/06 00:36:29;;;;;;;16.33;7.27;;;;;;;12.92;94.52;102382.63;5071750;28;20020;-58
2023/10/06 00:38:52;;;;;;;12.00;3.85;;;;;;;13.12;93.61;102396.84;5071189;28;20040;-58
2023/10/06 00:41:21;;;;;;;13.95;6.75;;;;;;;12.87;94.37;102373.13;5071690;28;20043;-58
2023/10/06 00:43:50;;;;;;;8.00;4.13;;;;;;;13.11;93.67;102389.75;5071538;28;20456;-58
2023/10/06 00:46:18;;;;;;;12.65;6.32;;;;;;;12.92;94.21;102387.97;5071769;28;20451;-58
2023/10/06 00:48:56;;;;;;;12.20;6.88;;;;;;;12.81;95.11;102384.09;5071279;28;20357;-58
2023/10/06 00:51:25;;;;;;;13.35;6.90;;;;;;;12.89;94.82;102376.59;5071556;28;20111;-58
2023/10/06 00:53:56;;;;;;;14.23;6.75;;;;;;;12.83;94.86;102380.41;5070554;28;20021;-58
2023/10/06 00:56:25;;;;;;;10.85;6.80;;;;;;;12.82;95.07;102372.47;5070166;28;20032;-58
2023/10/06 00:58:51;;;;;;;8.75;4.00;;;;;;;12.97;94.58;102377.09;5071595;28;20463;-59
2023/10/06 01:01:17;;;;;;;11.68;6.28;;;;;;;12.76;95.18;102381.63;5071200;28;20032;-58
2023/10/06 01:03:49;;;;;;;12.48;6.85;;;;;;;12.79;95.24;102370.81;5071562;28;20088;-58
2023/10/06 01:06:22;;;;;;;5.32;3.92;;;;;;;12.90;94.58;102365.81;5069543;28;20080;-58
2023/10/06 01:08:55;;;;;;;14.00;6.32;;;;;;;12.82;95.29;102365.31;5071429;28;20055;-58
2023/10/06 01:11:26;;;;;;;4.65;3.53;;;;;;;12.92;94.67;102366.63;5075426;28;20036;-58
2023/10/06 01:13:54;;;;;;;10.88;6.45;;;;;;;12.78;95.50;102358.41;5075132;28;20332;-58
2023/10/06 01:16:25;;;;;;;12.35;6.32;;;;;;;12.82;95.65;102356.44;5073441;28;20044;-58
2023/10/06 01:19:00;;;;;;;11.90;6.10;;;;;;;12.77;95.40;102342.47;5075166;28;20507;-58
2023/10/06 01:21:28;;;;;;;11.07;6.07;;;;;;;12.81;95.47;102344.03;5075270;28;20024;-58
2023/10/06 01:23:58;;;;;;;12.30;6.22;;;;;;;12.78;95.51;102349.53;5074551;28;20492;-58
2023/10/06 01:26:24;;;;;;;11.60;6.18;;;;;;;12.74;95.72;102343.47;5075182;28;20024;-58
2023/10/06 01:28:51;;;;;;;7.35;4.45;;;;;;;12.89;95.10;102349.88;5075219;28;20029;-58
2023/10/06 01:31:19;;;;;;;6.20;4.07;;;;;;;12.90;94.98;102351.59;5074892;28;20093;-58
2023/10/06 01:33:45;;;;;;;9.60;6.32;;;;;;;12.74;95.79;102346.16;5074739;28;20024;-58
2023/10/06 01:36:21;;;;;;;11.27;6.75;;;;;;;12.73;96.02;102355.97;5075194;28;20032;-58
2023/10/06 01:38:47;;;;;;;8.55;3.63;;;;;;;12.81;95.15;102349.38;5074578;28;20026;-60
2023/10/06 01:41:12;;;;;;;8.27;4.05;;;;;;;12.79;95.51;102341.44;5073817;28;20020;-59
2023/10/06 01:43:38;;;;;;;11.50;6.40;;;;;;;12.64;96.20;102343.03;5074582;28;20103;-59
2023/10/06 01:46:07;;;;;;;8.60;3.80;;;;;;;12.78;95.71;102344.19;5074867;28;20438;-59
2023/10/06 01:48:33;;;;;;;10.40;6.45;;;;;;;12.55;96.60;102339.94;5074622;28;20048;-58
2023/10/06 01:50:59;;;;;;;12.05;6.93;;;;;;;12.63;96.68;102333.31;5074931;28;20099;-59
2023/10/06 01:53:32;;;;;;;9.75;6.75;;;;;;;12.61;97.21;102339.66;5089887;28;20115;-59
2023/10/06 01:56:01;;;;;;;12.85;7.55;;;;;;;12.62;96.98;102331.59;5074648;28;20483;-59
2023/10/06 01:58:28;;;;;;;11.85;6.53;;;;;;;12.57;97.13;102333.59;5074397;28;20028;-59
2023/10/06 02:00:54;;;;;;;14.40;7.13;;;;;;;12.56;97.13;102328.31;5074211;28;20024;-59
2023/10/06 02:03:21;;;;;;;15.85;6.63;;;;;;;12.54;97.36;102320.41;5074563;28;20057;-59
2023/10/06 02:05:47;;;;;;;14.30;3.90;;;;;;;12.69;96.65;102325.00;5074373;28;20025;-58
2023/10/06 02:08:21;;;;;;;8.27;4.03;;;;;;;12.68;96.55;102325.09;5074589;28;20039;-58
2023/10/06 02:10:47;;;;;;;14.07;6.15;;;;;;;12.60;97.30;102320.13;5072029;28;20368;-59
2023/10/06 02:13:22;;;;;;;11.80;6.60;;;;;;;12.46;97.63;102326.09;5074416;28;20016;-59
2023/10/06 02:15:58;;;;;;;10.02;4.13;;;;;;;12.61;97.07;102329.84;5073848;28;20072;-59
2023/10/06 02:18:36;;;;;;;11.05;6.32;;;;;;;12.49;97.70;102336.63;5072931;28;20472;-59
2023/10/06 02:21:23;;;;;;;5.68;3.88;;;;;;;12.64;97.09;102339.50;5073733;28;20044;-59
2023/10/06 02:23:50;;;;;;;11.52;6.38;;;;;;;12.53;97.58;102328.47;5053738;28;20021;-59
2023/10/06 02:26:16;;;;;;;9.25;4.38;;;;;;;12.60;97.16;102332.59;5054096;28;20087;-59
2023/10/06 02:28:48;;;;;;;7.38;4.00;;;;;;;12.61;97.01;102334.31;5054060;28;20021;-59
2023/10/06 02:31:14;;;;;;;7.68;4.05;;;;;;;12.61;96.75;102334.31;5054072;28;20108;-59
2023/10/06 02:33:47;;;;;;;11.32;5.90;;;;;;;12.42;97.81;102321.00;5071460;28;20021;-59
2023/10/06 02:36:17;;;;;;;7.13;3.83;;;;;;;12.57;97.30;102330.94;5074159;28;20016;-59
2023/10/06 02:38:46;;;;;;;6.55;4.03;;;;;;;12.58;97.15;102334.47;5073585;28;20025;-59
2023/10/06 02:41:20;;;;;;;11.07;6.53;;;;;;;12.46;97.80;102328.75;5106250;28;20021;-59
2023/10/06 02:43:50;;;;;;;10.93;4.78;;;;;;;12.53;97.24;102317.78;5073246;28;20036;-59
2023/10/06 02:46:17;;;;;;;12.13;6.72;;;;;;;12.41;97.85;102319.25;5073687;28;20047;-59
2023/10/06 02:48:48;;;;;;;11.65;6.05;;;;;;;12.36;97.96;102318.63;5073848;28;20392;-59
2023/10/06 02:51:29;;;;;;;14.57;7.05;;;;;;;12.32;98.57;102322.34;5073633;28;20023;-59
2023/10/06 02:54:09;;;;;;;7.72;3.42;;;;;;;12.43;97.79;102320.03;5053096;28;20057;-59
2023/10/06 02:56:35;;;;;;;5.53;3.35;;;;;;;12.41;97.64;102324.56;5053383;28;20439;-59
2023/10/06 02:59:15;;;;;;;14.10;6.63;;;;;;;12.24;98.50;102315.59;5051897;28;20060;-59
2023/10/06 03:01:47;;;;;;;11.57;4.05;;;;;;;12.36;97.93;102315.94;5053374;28;20025;-59
2023/10/06 03:04:17;;;;;;;9.38;3.75;;;;;;;12.36;98.02;102310.63;5070260;28;20030;-59
2023/10/06 03:06:42;;;;;;;10.05;6.70;;;;;;;12.20;98.47;102308.63;5073301;28;20016;-59
2023/10/06 03:09:08;;;;;;;9.52;6.10;;;;;;;12.25;98.81;102308.44;5072818;28;20043;-59
2023/10/06 03:11:38;;;;;;;8.75;3.78;;;;;;;12.32;98.05;102309.00;5072656;28;20044;-59
2023/10/06 03:14:07;;;;;;;11.07;5.72;;;;;;;12.17;98.69;102302.59;5072980;28;20033;-59
2023/10/06 03:16:39;;;;;;;9.05;4.63;;;;;;;12.27;98.03;102302.09;5072858;28;20044;-59
2023/10/06 03:19:05;;;;;;;11.30;8.45;;;;;;;12.18;98.50;102294.53;5071741;28;20021;-58
2023/10/06 03:21:33;;;;;;;13.90;7.60;;;;;;;12.22;98.40;102297.91;5072553;28;20495;-59
2023/10/06 03:24:05;;;;;;;14.25;8.02;;;;;;;12.11;98.38;102294.88;5051306;28;20025;-59
2023/10/06 03:26:34;;;;;;;12.57;4.78;;;;;;;12.18;98.01;102294.53;5052635;28;20025;-58
2023/10/06 03:29:02;;;;;;;9.55;7.70;;;;;;;12.03;98.70;102301.44;5053067;28;20032;-59
2023/10/06 03:31:46;;;;;;;13.32;7.68;;;;;;;12.02;98.92;102302.34;5058245;28;20107;-59
2023/10/06 03:34:16;;;;;;;10.98;8.07;;;;;;;12.01;98.55;102294.44;5072793;28;20107;-59
2023/10/06 03:37:00;;;;;;;;;;;;;;;12.21;97.73;102315.72;5073600;28;20024;-59
2023/10/06 03:39:30;;;;;;;11.32;4.20;;;;;;;12.20;97.38;102311.31;5072266;28;19915;-59
2023/10/06 03:42:03;;;;;;;6.22;4.10;;;;;;;12.22;97.06;102313.91;5072337;28;20020;-59
2023/10/06 03:44:31;;;;;;;8.32;4.68;;;;;;;12.17;97.13;102308.78;5072476;28;20043;-59
2023/10/06 03:47:00;;;;;;;10.48;7.18;;;;;;;12.00;97.94;102314.91;5071477;28;20032;-59
2023/10/06 03:49:27;;;;;;;19.67;8.80;;;;;;;12.01;97.91;102308.63;5072374;28;20025;-59
2023/10/06 03:51:55;;;;;;;9.82;4.05;;;;;;;12.09;97.15;102302.97;5072300;28;20036;-59
2023/10/06 03:54:23;;;;;;;7.03;4.35;;;;;;;12.09;97.32;102310.06;5070507;28;20029;-59
2023/10/06 03:56:49;;;;;;;13.07;7.88;;;;;;;11.92;97.80;102301.06;5072264;28;20476;-59
2023/10/06 03:59:15;;;;;;;7.72;4.45;;;;;;;12.01;97.24;102295.31;5072163;28;20025;-59
2023/10/06 04:01:44;;;;;;;12.88;7.47;;;;;;;11.87;97.74;102287.06;5071253;28;20032;-59
2023/10/06 04:04:10;;;;;;;16.37;8.10;;;;;;;11.83;98.02;102277.44;5072497;28;20468;-59
2023/10/06 04:06:36;;;;;;;11.20;7.60;;;;;;;11.90;98.09;102281.59;5070987;28;20282;-59
2023/10/06 04:09:02;;;;;;;11.52;7.38;;;;;;;11.86;98.13;102281.81;5071696;28;20020;-59
2023/10/06 04:11:34;;;;;;;14.00;8.35;;;;;;;11.87;97.70;102276.41;5071539;28;20025;-59
2023/10/06 04:13:59;;;;;;;11.48;8.02;;;;;;;11.82;97.97;102273.03;5070565;28;20074;-59
2023/10/06 04:16:25;;;;;;;13.45;8.13;;;;;;;11.87;97.58;102267.53;5071766;28;20044;-59
2023/10/06 04:18:50;;;;;;;12.40;7.45;;;;;;;11.77;97.62;102264.41;5071833;28;20039;-59
2023/10/06 04:21:17;;;;;;;13.23;7.70;;;;;;;11.82;97.68;102270.38;5071603;28;20044;-59
2023/10/06 04:23:42;;;;;;;17.77;8.13;;;;;;;11.79;97.40;102262.50;5071474;28;20021;-59
2023/10/06 04:26:09;;;;;;;14.07;7.90;;;;;;;11.82;96.96;102283.69;5071618;28;20017;-59
2023/10/06 04:28:37;;;;;;;10.73;4.82;;;;;;;11.89;97.06;102293.19;5071582;28;20029;-59
2023/10/06 04:31:05;;;;;;;10.43;6.85;;;;;;;11.90;97.24;102297.59;5071783;28;20214;-59
2023/10/06 04:33:31;;;;;;;9.10;4.13;;;;;;;11.93;96.65;102299.25;5069760;28;20032;-59
2023/10/06 04:36:07;;;;;;;4.93;3.42;;;;;;;11.93;96.35;102292.09;5070518;28;20016;-59
2023/10/06 04:38:37;;;;;;;9.23;6.72;;;;;;;11.83;96.62;102294.31;5069835;28;20024;-59
2023/10/06 04:41:07;;;;;;;7.00;4.03;;;;;;;11.92;96.50;102292.19;5071690;28;20102;-59
2023/10/06 04:43:33;;;;;;;7.15;4.10;;;;;;;11.90;96.01;102286.06;5070316;28;20016;-59
2023/10/06 04:45:59;;;;;;;13.23;7.65;;;;;;;11.71;96.87;102270.00;5070619;28;20020;-59
2023/10/06 04:48:24;;;;;;;8.88;3.85;;;;;;;11.78;96.33;102269.66;5071549;28;20021;-59
2023/10/06 04:50:50;;;;;;;9.60;5.07;;;;;;;11.83;96.21;102272.97;5071720;28;20078;-59
2023/10/06 04:53:16;;;;;;;9.60;7.47;;;;;;;11.68;96.68;102265.69;5069557;28;20494;-59
2023/10/06 04:55:43;;;;;;;12.40;7.75;;;;;;;11.65;96.81;102271.16;5070307;28;20020;-59
2023/10/06 04:58:13;;;;;;;5.95;4.15;;;;;;;11.80;96.43;102274.94;5071800;28;20028;-59
2023/10/06 05:00:39;;;;;;;7.82;4.30;;;;;;;11.81;96.18;102269.50;5070500;28;20032;-59
2023/10/06 05:03:06;;;;;;;12.88;7.07;;;;;;;11.70;96.94;102265.59;5071054;28;20027;-59
2023/10/06 05:05:37;;;;;;;12.85;7.32;;;;;;;11.70;96.65;102261.13;5071443;28;20024;-59
2023/10/06 05:08:04;;;;;;;9.00;4.25;;;;;;;11.78;96.07;102260.78;5071367;28;20471;-59
2023/10/06 05:10:31;;;;;;;9.52;4.68;;;;;;;11.83;95.82;102270.31;5069836;28;20025;-59
2023/10/06 05:12:59;;;;;;;7.15;6.32;;;;;;;11.70;96.15;102266.47;5071251;28;20102;-58
2023/10/06 05:15:26;;;;;;;12.13;6.22;;;;;;;11.66;95.97;102256.88;5069909;28;20044;-59
2023/10/06 05:17:58;;;;;;;6.35;4.15;;;;;;;11.81;95.81;102261.50;5070177;28;20021;-58
2023/10/06 05:20:35;;;;;;;6.95;3.53;;;;;;;11.82;95.42;102255.25;5071314;28;20028;-59
2023/10/06 05:23:06;;;;;;;10.27;3.88;;;;;;;11.82;95.03;102255.25;5070842;28;20216;-58
2023/10/06 05:25:33;;;;;;;13.27;6.63;;;;;;;11.74;95.61;102259.22;5069678;28;20032;-59
2023/10/06 05:27:59;;;;;;;13.32;7.13;;;;;;;11.71;95.89;102264.69;5071458;28;20052;-59
2023/10/06 05:30:25;;;;;;;11.27;6.30;;;;;;;11.69;95.73;102264.75;5071048;28;20013;-59
2023/10/06 05:32:51;;;;;;;8.93;6.80;;;;;;;11.71;95.54;102265.53;5070121;28;20525;-59
2023/10/06 05:35:16;;;;;;;11.38;6.68;;;;;;;11.68;95.69;102268.34;5070929;28;20021;-59
2023/10/06 05:37:46;;;;;;;5.32;4.03;;;;;;;11.73;95.25;102257.47;5070606;28;20050;-59
2023/10/06 05:40:12;;;;;;;11.55;7.18;;;;;;;11.70;95.34;102268.25;5069392;28;20052;-58
2023/10/06 05:42:40;;;;;;;10.30;6.63;;;;;;;11.64;95.83;102268.53;5069615;28;20051;-59
2023/10/06 05:45:15;;;;;;;7.18;4.25;;;;;;;11.75;95.33;102268.94;5069470;28;20357;-59
2023/10/06 05:47:42;;;;;;;9.77;4.20;;;;;;;11.75;95.23;102264.47;5070457;28;20466;-59
2023/10/06 05:50:09;;;;;;;10.27;6.68;;;;;;;11.55;95.80;102265.34;5069631;28;20111;-59
2023/10/06 05:52:38;;;;;;;4.53;3.92;;;;;;;11.71;95.50;102264.69;5052768;28;20045;-59
2023/10/06 05:55:09;;;;;;;10.00;7.13;;;;;;;11.53;95.76;102261.00;5072918;28;20016;-59
2023/10/06 05:57:38;;;;;;;16.27;7.00;;;;;;;11.62;95.27;102273.97;5074373;28;20036;-59
2023/10/06 06:00:09;;;;;;;12.73;7.00;;;;;;;11.59;95.39;102276.75;5074495;28;20103;-59
2023/10/06 06:02:37;;;;;;;12.13;7.70;;;;;;;11.50;95.51;102267.38;5074208;28;20479;-59
2023/10/06 06:05:04;;;;;;;10.23;7.15;;;;;;;11.59;95.84;102274.09;5074423;28;20031;-59
2023/10/06 06:07:29;;;;;;;8.32;4.05;;;;;;;11.70;95.40;102269.13;5074278;28;20055;-58
2023/10/06 06:09:55;;;;;;;11.30;4.38;;;;;;;11.69;94.96;102264.75;5072775;28;20472;-59
2023/10/06 06:12:22;;;;;;;9.10;4.32;;;;;;;11.67;95.09;102258.59;5072255;28;20495;-58
2023/10/06 06:14:48;;;;;;;12.05;7.00;;;;;;;11.64;95.39;102272.06;5074204;28;20044;-58
2023/10/06 06:17:13;;;;;;;6.43;5.03;;;;;;;11.74;94.92;102276.06;5074396;28;20494;-59
2023/10/06 06:19:39;;;;;;;10.65;6.82;;;;;;;11.80;95.07;102285.59;5073067;28;20025;-59
2023/10/06 06:22:05;;;;;;;11.60;7.63;;;;;;;11.71;94.78;102273.53;5073890;28;20032;-59
2023/10/06 06:24:31;;;;;;;14.68;7.53;;;;;;;11.70;95.24;102276.25;5073291;28;20518;-58
2023/10/06 06:26:59;;;;;;;13.85;7.43;;;;;;;11.76;95.34;102278.66;5073852;28;20016;-59
2023/10/06 06:29:25;;;;;;;14.10;4.28;;;;;;;11.84;94.95;102281.84;5073893;28;20085;-58
2023/10/06 06:31:52;;;;;;;5.85;3.90;;;;;;;11.84;95.01;102284.50;5074116;28;20115;-59
2023/10/06 06:34:18;;;;;;;11.57;7.07;;;;;;;11.80;94.88;102291.78;5073807;28;20447;-59
2023/10/06 06:36:45;;;;;;;13.13;7.13;;;;;;;11.78;94.66;102284.78;5073459;28;20031;-58
2023/10/06 06:39:10;;;;;;;9.60;4.35;;;;;;;11.91;94.11;102287.78;5072076;28;20024;-58
2023/10/06 06:41:36;;;;;;;13.27;7.10;;;;;;;11.77;94.91;102278.59;5073497;28;20032;-58
2023/10/06 06:44:01;;;;;;;12.32;6.90;;;;;;;11.78;94.58;102282.13;5072308;28;20048;-59
2023/10/06 06:46:29;;;;;;;12.25;7.38;;;;;;;11.82;94.56;102286.34;5072194;28;20024;-59
2023/10/06 06:48:59;;;;;;;12.20;7.60;;;;;;;11.85;94.60;102294.25;5073160;28;20450;-58
2023/10/06 06:51:28;;;;;;;8.73;4.28;;;;;;;11.93;94.37;102278.78;5071833;28;20107;-59
2023/10/06 06:53:59;;;;;;;10.85;4.03;;;;;;;11.96;94.48;102289.31;5072494;28;20551;-58
2023/10/06 06:56:28;;;;;;;14.88;8.10;;;;;;;11.87;94.42;102284.41;5071883;28;20074;-58
2023/10/06 06:58:59;;;;;;;10.65;7.18;;;;;;;11.91;94.54;102291.34;5073375;28;20138;-58
2023/10/06 07:01:25;;;;;;;5.50;4.20;;;;;;;11.94;94.34;102275.19;5073407;28;20024;-59
2023/10/06 07:03:50;;;;;;;7.07;3.65;;;;;;;12.02;94.11;102288.16;5071681;28;20513;-58
2023/10/06 07:06:16;;;;;;;10.50;3.75;;;;;;;12.03;94.18;102285.44;5072168;28;20062;-59
2023/10/06 07:08:46;;;;;;;20.35;4.35;;;;;;;12.02;94.23;102282.81;5071510;28;20029;-59
2023/10/06 07:11:12;;;;;;;;;;;;;;;12.09;94.07;102276.28;5072661;28;20550;-59
2023/10/06 07:13:38;;;;;;;7.00;4.10;;;;;;;12.09;94.33;102278.06;5072915;28;20301;-59
2023/10/06 07:16:05;;;;;;;10.00;6.18;;;;;;;11.95;94.44;102271.59;5073118;28;20059;-59
2023/10/06 07:18:31;;;;;;;12.25;7.03;;;;;;;12.05;94.32;102272.00;5071552;28;20082;-59
2023/10/06 07:20:58;;;;;;;8.57;7.13;;;;;;;12.04;94.49;102275.63;5071751;28;20069;-59
2023/10/06 07:23:24;;;;;;;14.35;7.45;;;;;;;12.09;94.27;102281.63;5071482;28;20071;-59
2023/10/06 07:25:49;;;;;;;14.45;7.13;;;;;;;12.14;94.10;102284.06;5072370;28;20479;-58
2023/10/06 07:28:15;;;;;;;11.80;7.20;;;;;;;12.12;93.99;102276.16;5072872;28;20032;-58
2023/10/06 07:30:40;;;;;;;11.95;7.68;;;;;;;12.18;93.88;102286.53;5073051;28;20052;-58
2023/10/06 07:33:06;;;;;;;12.55;8.38;;;;;;;12.24;93.83;102274.72;5072455;28;20384;-59
2023/10/06 07:35:47;;;;;;;12.52;7.47;;;;;;;12.34;94.13;102283.13;5070985;28;20025;-59
2023/10/06 07:38:13;;;;;;;13.70;7.55;;;;;;;12.38;93.39;102284.69;5072704;28;20033;-59
2023/10/06 07:40:39;;;;;;;12.68;6.80;;;;;;;12.42;93.10;102283.63;5071548;28;20032;-59
2023/10/06 07:43:07;;;;;;;7.35;4.03;;;;;;;12.51;93.31;102291.19;5072459;28;20027;-59
2023/10/06 07:45:33;;;;;;;6.45;4.13;;;;;;;12.53;93.04;102286.66;5072321;28;20099;-59
2023/10/06 07:47:59;;;;;;;12.23;7.07;;;;;;;12.63;93.19;102305.75;5072170;28;20099;-59
2023/10/06 07:50:29;;;;;;;12.45;7.55;;;;;;;12.68;92.76;102307.28;5087391;28;20020;-59
2023/10/06 07:52:57;;;;;;;10.13;4.72;;;;;;;12.77;92.77;102315.78;5070879;28;20024;-59
2023/10/06 07:55:23;;;;;;;11.10;7.13;;;;;;;12.82;93.12;102309.25;5070395;28;20055;-59
2023/10/06 07:57:48;;;;;;;14.00;7.68;;;;;;;12.92;92.22;102312.34;5072162;28;20452;-59
2023/10/06 08:00:32;;;;;;;12.90;3.90;;;;;;;12.98;92.08;102322.72;5072168;28;20028;-59
2023/10/06 08:03:01;;;;;;;12.93;6.95;;;;;;;13.12;92.15;102332.72;5071556;28;20430;-59
2023/10/06 08:05:29;;;;;;;12.38;7.55;;;;;;;13.21;91.66;102323.38;5070763;28;20036;-59
2023/10/06 08:07:59;;;;;;;15.48;7.35;;;;;;;13.24;90.79;102317.91;5072174;28;20020;-59
2023/10/06 08:10:24;;;;;;;11.43;6.65;;;;;;;13.28;90.24;102304.31;5070215;28;20028;-59
2023/10/06 08:12:56;;;;;;;12.52;5.22;;;;;;;13.43;89.84;102310.69;5071656;28;20502;-59
2023/10/06 08:15:22;;;;;;;13.75;7.18;;;;;;;13.55;90.01;102295.81;5071800;28;20056;-59
2023/10/06 08:17:55;;;;;;;9.77;6.75;;;;;;;13.66;89.50;102304.13;5071649;28;20031;-59
2023/10/06 08:20:21;;;;;;;15.98;7.10;;;;;;;13.78;89.09;102297.28;5070635;28;20032;-59
2023/10/06 08:22:49;;;;;;;13.40;7.03;;;;;;;14.10;88.51;102316.94;5071601;28;20016;-59
2023/10/06 08:25:15;;;;;;;16.35;7.70;;;;;;;14.21;88.10;102308.34;5070365;28;20482;-59
2023/10/06 08:27:42;;;;;;;15.15;7.00;;;;;;;14.28;87.11;102299.00;5071940;28;20016;-59
2023/10/06 08:30:19;;;;;;;12.48;6.68;;;;;;;14.50;87.38;102307.59;5070460;28;20021;-59
2023/10/06 08:32:48;;;;;;;12.95;6.72;;;;;;;14.56;86.55;102313.56;5071274;28;20032;-59
2023/10/06 08:35:14;;;;;;;13.50;6.68;;;;;;;14.64;86.79;102322.03;5071776;28;20025;-59
2023/10/06 08:37:50;;;;;;;11.23;6.47;;;;;;;14.66;86.55;102321.00;5071849;28;20387;-58
2023/10/06 08:40:17;;;;;;;11.95;6.10;;;;;;;14.73;86.63;102318.81;5069824;28;20376;-59
2023/10/06 08:42:49;;;;;;;11.55;6.35;;;;;;;14.75;86.65;102309.75;5070319;28;20024;-59
2023/10/06 08:45:19;;;;;;;13.02;6.82;;;;;;;14.76;86.32;102321.31;5071420;28;20051;-59
2023/10/06 08:47:46;;;;;;;22.10;7.13;;;;;;;14.85;86.43;102319.94;5071522;28;20521;-59
2023/10/06 08:50:13;;;;;;;14.25;7.55;;;;;;;14.89;86.76;102308.09;5071515;28;20024;-59
2023/10/06 08:52:40;;;;;;;12.85;7.03;;;;;;;15.02;87.28;102302.88;5071070;28;20034;-59
2023/10/06 08:55:06;;;;;;;11.95;6.80;;;;;;;15.11;85.79;102299.66;5070830;28;20567;-59
2023/10/06 08:57:33;;;;;;;11.10;7.38;;;;;;;15.26;85.51;102312.16;5071323;28;20108;-59
2023/10/06 08:59:58;;;;;;;11.68;6.93;;;;;;;15.42;85.57;102304.06;5069721;28;20529;-59
2023/10/06 09:02:27;;;;;;;14.40;6.50;;;;;;;15.52;85.68;102307.91;5071109;28;20020;-59
2023/10/06 09:04:54;;;;;;;13.70;6.78;;;;;;;15.55;85.61;102310.41;5070930;28;20027;-59
2023/10/06 09:07:21;;;;;;;14.10;7.07;;;;;;;15.59;83.84;102316.47;5071231;28;20078;-59
2023/10/06 09:09:47;;;;;;;12.20;6.95;;;;;;;15.58;83.46;102325.44;5070598;28;20067;-59
2023/10/06 09:12:26;;;;;;;12.50;7.40;;;;;;;15.58;83.66;102322.78;5071602;28;20067;-59
2023/10/06 09:14:56;;;;;;;14.65;7.47;;;;;;;15.64;83.24;102338.50;5069562;28;20503;-58
2023/10/06 09:17:32;;;;;;;14.48;6.97;;;;;;;15.78;84.62;102325.13;5071435;28;20020;-59
2023/10/06 09:19:58;;;;;;;16.10;6.43;;;;;;;15.85;83.14;102325.63;5069883;28;20024;-59
2023/10/06 09:22:29;;;;;;;10.68;6.53;;;;;;;15.82;83.19;102318.63;5071375;28;20028;-59
2023/10/06 09:25:04;;;;;;;18.08;6.47;;;;;;;15.87;83.25;102321.03;5069337;28;20042;-59
2023/10/06 09:27:31;;;;;;;13.48;7.13;;;;;;;16.00;83.07;102307.69;5049896;28;20459;-59
2023/10/06 09:30:01;;;;;;;13.55;6.63;;;;;;;16.05;82.81;102303.78;5053054;28;20053;-59
2023/10/06 09:32:27;;;;;;;11.50;6.68;;;;;;;16.25;83.18;102302.50;5054800;28;20037;-59
2023/10/06 09:34:56;;;;;;;12.57;7.00;;;;;;;16.34;82.09;102303.75;5090390;28;20431;-59
2023/10/06 09:37:21;;;;;;;14.27;6.55;;;;;;;16.28;81.32;102298.78;5075261;28;20020;-59
2023/10/06 09:40:18;;;;;;;11.80;6.35;;;;;;;16.29;81.78;102292.44;5074504;28;20039;-59
2023/10/06 09:42:46;;;;;;;12.95;6.32;;;;;;;16.24;81.56;102295.44;5073781;28;20028;-59
2023/10/06 09:45:15;;;;;;;15.77;6.20;;;;;;;16.39;81.91;102300.78;5073396;28;20120;-59
2023/10/06 09:47:50;;;;;;;13.35;5.88;;;;;;;16.39;82.64;102290.91;5073584;28;20097;-59
2023/10/06 09:50:22;;;;;;;9.57;6.03;;;;;;;16.47;81.84;102293.06;5074888;28;20111;-59
2023/10/06 09:52:48;;;;;;;10.25;5.70;;;;;;;16.68;84.08;102294.38;5073508;28;20033;-59
2023/10/06 09:55:19;;;;;;;15.23;6.72;;;;;;;16.89;81.56;102286.75;5073778;28;20032;-59
2023/10/06 09:57:50;;;;;;;10.60;6.00;;;;;;;17.02;81.85;102284.09;5074124;28;20029;-59
2023/10/06 10:00:17;;;;;;;11.48;5.75;;;;;;;17.06;79.79;102288.31;5074588;28;20020;-59
2023/10/06 10:02:47;;;;;;;9.13;5.65;;;;;;;17.16;79.64;102296.59;5074484;28;20017;-59
2023/10/06 10:05:15;;;;;;;13.32;6.03;;;;;;;17.09;78.91;102292.59;5074172;28;20028;-59
2023/10/06 10:07:41;;;;;;;13.50;5.88;;;;;;;16.97;79.37;102291.59;5073087;28;20024;-59
2023/10/06 10:10:10;;;;;;;14.23;6.15;;;;;;;16.97;79.99;102281.72;5072236;28;20036;-59
2023/10/06 10:12:39;;;;;;;12.27;5.78;;;;;;;17.09;79.73;102281.84;5072623;28;20032;-59
2023/10/06 10:15:37;;;;;;;13.57;5.65;;;;;;;17.06;81.18;102287.41;5073635;28;20049;-59
2023/10/06 10:18:38;;;;;;;14.17;6.10;;;;;;;17.12;79.58;102295.06;5054292;28;20041;-59
2023/10/06 10:21:08;;;;;;;11.68;5.30;;;;;;;16.97;80.08;102286.22;5037969;28;20286;-59
2023/10/06 10:23:37;;;;;;;10.32;5.18;;;;;;;17.03;79.45;102286.69;5052672;28;20559;-62
2023/10/06 10:26:18;;;;;;;13.07;5.35;;;;;;;17.21;79.71;102289.94;5058675;28;20020;-59
2023/10/06 10:29:04;;;;;;;12.70;6.35;;;;;;;17.26;77.96;102284.25;5073833;28;20028;-59
2023/10/06 10:31:42;;;;;;;11.82;6.05;;;;;;;17.29;78.02;102283.19;5072673;28;20025;-59
2023/10/06 10:34:08;;;;;;;9.15;5.07;;;;;;;17.30;76.91;102280.41;5073867;28;20021;-59
2023/10/06 10:36:34;;;;;;;13.68;5.85;;;;;;;17.25;78.07;102267.25;5074008;28;20024;-59
2023/10/06 10:39:02;;;;;;;9.38;5.20;;;;;;;17.29;77.60;102277.78;5073444;28;20032;-59
2023/10/06 10:41:35;;;;;;;15.95;5.60;;;;;;;17.46;77.03;102275.66;5072350;28;20538;-59
2023/10/06 10:44:03;;;;;;;14.45;6.28;;;;;;;17.63;75.88;102279.03;5073890;28;20063;-59
2023/10/06 10:46:48;;;;;;;12.18;6.22;;;;;;;17.79;76.55;102276.13;5055424;28;20024;-59
2023/10/06 10:49:19;;;;;;;14.00;5.70;;;;;;;18.12;75.03;102273.75;5073327;28;20107;-59
2023/10/06 10:51:55;;;;;;;13.48;5.93;;;;;;;18.58;73.68;102266.78;5072230;28;20145;-59
2023/10/06 10:54:23;;;;;;;15.05;5.95;;;;;;;18.76;71.44;102270.84;5073164;28;20055;-59
2023/10/06 10:56:51;;;;;;;14.95;5.40;;;;;;;19.05;69.69;102271.31;5071868;28;20020;-59
2023/10/06 10:59:18;;;;;;;13.57;5.90;;;;;;;19.19;68.52;102264.88;5073458;28;20032;-59
2023/10/06 11:01:51;;;;;;;14.65;5.22;;;;;;;19.50;68.16;102275.97;5072168;28;20025;-59
2023/10/06 11:04:29;;;;;;;9.25;5.47;;;;;;;19.48;68.15;102269.88;5073370;28;20021;-59
2023/10/06 11:06:55;;;;;;;13.97;5.87;;;;;;;19.65;68.51;102268.59;5073220;28;20031;-59
2023/10/06 11:09:26;;;;;;;13.98;6.05;;;;;;;19.73;67.09;102266.97;5072653;28;20498;-59
2023/10/06 11:12:05;;;;;;;10.65;5.53;;;;;;;19.70;69.04;102283.41;5072828;28;20044;-59
2023/10/06 11:14:38;;;;;;;10.80;5.60;;;;;;;19.73;67.26;102279.63;5072132;28;20052;-59
2023/10/06 11:17:05;;;;;;;15.65;6.43;;;;;;;19.29;66.66;102278.50;5071784;28;20037;-59
2023/10/06 11:19:32;;;;;;;13.98;5.55;;;;;;;18.92;69.28;102267.00;5071546;28;20360;-59
2023/10/06 11:22:22;;;;;;;10.55;6.03;;;;;;;18.71;70.09;102272.16;5073072;28;20024;-59
2023/10/06 11:24:49;;;;;;;12.82;5.78;;;;;;;18.47;71.20;102264.91;5071840;28;20020;-59
2023/10/06 11:27:17;;;;;;;12.77;5.82;;;;;;;18.49;72.34;102267.47;5072731;28;20029;-59
2023/10/06 11:29:45;;;;;;;14.82;6.07;;;;;;;18.54;72.47;102266.16;5072877;28;20107;-59